Time;durP1;ratioP1;P1;durP2;ratioP2;P2;SDS_P1;SDS_P2;PMS_P1;PMS_P2;Temp;Humidity;BMP_temperature;BMP_pressure;BME280_temperature;BME280_humidity;BME280_pressure;Samples;Min_cycle;Max_cycle;Signal;HPM_P1;HPM_P2
2022/04/24 00:00:44;;;;;;;13.83;11.70;;;14.60;65.90;14.90;94557.00;;;;5031988;28;20244;-91
2022/04/24 00:03:12;;;;;;;13.77;11.83;;;14.60;65.90;14.90;94542.00;;;;5032328;28;20198;-90
2022/04/24 00:05:40;;;;;;;14.90;12.20;;;14.60;65.90;14.90;94537.00;;;;5031856;28;20212;-90
2022/04/24 00:08:08;;;;;;;15.30;12.27;;;14.60;66.00;14.80;94528.00;;;;5031867;28;20217;-90
2022/04/24 00:13:08;;;;;;;16.33;12.97;;;14.60;66.10;14.80;94515.00;;;;5036196;28;20209;-83
2022/04/24 00:15:35;;;;;;;13.60;11.87;;;14.50;66.00;14.70;94530.00;;;;5028654;28;20190;-83
2022/04/24 00:18:02;;;;;;;16.73;12.43;;;14.50;66.10;14.70;94514.00;;;;5042594;28;20203;-83
2022/04/24 00:20:29;;;;;;;16.23;12.40;;;14.50;66.20;14.70;94513.00;;;;5044201;28;20201;-83
2022/04/24 00:22:57;;;;;;;14.80;12.20;;;14.40;66.30;14.70;94511.00;;;;5045622;28;20239;-83
2022/04/24 00:25:24;;;;;;;15.00;12.67;;;14.40;66.30;14.70;94512.00;;;;5049042;28;20188;-84
2022/04/24 00:27:51;;;;;;;13.97;12.37;;;14.40;66.40;14.70;94505.00;;;;5058299;28;20221;-83
2022/04/24 00:30:18;;;;;;;15.93;12.17;;;14.40;66.60;14.70;94492.00;;;;5044368;28;20653;-84
2022/04/24 00:32:45;;;;;;;16.43;12.57;;;14.40;66.60;14.60;94504.00;;;;5031648;28;20209;-83
2022/04/24 00:35:12;;;;;;;16.10;13.00;;;14.40;66.80;14.60;94502.00;;;;5033654;28;20198;-83
2022/04/24 00:37:39;;;;;;;14.33;11.67;;;14.40;66.80;14.60;94492.00;;;;5040162;28;20593;-85
2022/04/24 00:40:10;;;;;;;15.77;12.37;;;14.40;67.00;14.60;94487.00;;;;5048037;28;20196;-83
2022/04/24 00:42:37;;;;;;;14.97;12.67;;;14.30;67.00;14.60;94488.00;;;;5038400;28;20224;-84
2022/04/24 00:45:05;;;;;;;16.03;12.30;;;14.40;67.00;14.60;94483.00;;;;5044900;28;20196;-84
2022/04/24 00:47:32;;;;;;;15.80;11.97;;;14.40;67.20;14.60;94481.00;;;;5054720;28;20733;-84
2022/04/24 00:49:59;;;;;;;13.47;11.90;;;14.40;67.30;14.70;94491.00;;;;5035874;28;20227;-83
2022/04/24 00:52:27;;;;;;;14.57;11.97;;;14.40;67.40;14.70;94482.00;;;;5043748;28;20224;-84
2022/04/24 00:54:54;;;;;;;16.93;12.77;;;14.40;67.40;14.70;94487.00;;;;5049003;28;20202;-84
2022/04/24 00:57:22;;;;;;;12.80;11.00;;;14.40;67.50;14.70;94494.00;;;;5044380;28;20284;-84
2022/04/24 00:59:49;;;;;;;15.83;12.27;;;14.40;67.60;14.70;94487.00;;;;5016944;28;20285;-84
2022/04/24 01:02:16;;;;;;;14.13;11.33;;;14.40;67.40;14.70;94485.00;;;;5035569;28;20218;-84
2022/04/24 01:04:44;;;;;;;15.90;12.73;;;14.40;67.40;14.70;94492.00;;;;5035880;28;20571;-85
2022/04/24 01:07:11;;;;;;;14.40;11.97;;;14.40;67.50;14.80;94493.00;;;;5049017;28;20200;-84
2022/04/24 01:09:39;;;;;;;14.70;11.43;;;14.40;67.50;14.80;94489.00;;;;5036209;28;20217;-84
2022/04/24 01:12:08;;;;;;;13.53;11.30;;;14.40;67.50;14.80;94489.00;;;;5044807;28;20716;-84
2022/04/24 01:14:37;;;;;;;14.50;11.50;;;14.50;67.70;14.90;94469.00;;;;5050796;28;20196;-84
2022/04/24 01:17:06;;;;;;;14.40;11.57;;;14.50;67.50;14.90;94470.00;;;;5040747;28;20200;-84
2022/04/24 01:19:34;;;;;;;13.90;11.13;;;14.50;67.50;14.90;94461.00;;;;5042035;28;20203;-84
2022/04/24 01:22:03;;;;;;;14.37;12.10;;;14.50;67.50;14.90;94457.00;;;;5046469;28;20216;-84
2022/04/24 01:24:31;;;;;;;14.30;11.80;;;14.50;67.50;15.00;94464.00;;;;5037387;28;20663;-84
2022/04/24 01:26:58;;;;;;;15.63;12.70;;;14.60;67.50;15.00;94447.00;;;;5047434;28;20201;-84
2022/04/24 01:29:25;;;;;;;15.07;12.43;;;14.60;67.50;15.00;94437.00;;;;5046645;28;20243;-84
2022/04/24 01:31:53;;;;;;;16.07;12.13;;;14.50;67.30;15.00;94434.00;;;;5041916;28;20221;-85
2022/04/24 01:34:21;;;;;;;14.63;12.20;;;14.60;67.30;15.00;94428.00;;;;5040864;28;20713;-85
2022/04/24 01:36:48;;;;;;;13.73;12.10;;;14.60;67.20;15.00;94419.00;;;;5045819;28;20207;-84
2022/04/24 01:39:17;;;;;;;14.83;11.80;;;14.60;67.40;15.00;94415.00;;;;5045324;28;20207;-84
2022/04/24 01:41:44;;;;;;;16.27;12.87;;;14.60;67.30;15.00;94421.00;;;;5042960;28;20221;-85
2022/04/24 01:44:12;;;;;;;16.13;12.47;;;14.60;67.20;15.00;94401.00;;;;5042792;28;20535;-84
2022/04/24 01:46:39;;;;;;;15.43;12.20;;;14.70;67.10;15.00;94437.00;;;;5047131;28;20214;-84
2022/04/24 01:49:06;;;;;;;13.67;11.43;;;14.60;67.10;15.00;94426.00;;;;5048490;28;20697;-85
2022/04/24 01:51:33;;;;;;;13.80;12.00;;;14.70;67.10;15.00;94421.00;;;;5036829;28;20217;-85
2022/04/24 01:54:00;;;;;;;15.07;12.00;;;14.60;67.20;15.00;94428.00;;;;5037750;28;20197;-84
2022/04/24 01:56:28;;;;;;;15.40;11.97;;;14.70;67.20;15.00;94433.00;;;;5039049;28;20194;-84
2022/04/24 01:58:55;;;;;;;13.60;11.43;;;14.60;67.30;15.00;94427.00;;;;5036230;28;20614;-84
2022/04/24 02:01:23;;;;;;;14.33;11.47;;;14.60;67.20;15.10;94421.00;;;;5045413;28;20220;-84
2022/04/24 02:03:50;;;;;;;13.67;11.63;;;14.70;67.30;15.00;94413.00;;;;5041739;28;20200;-85
2022/04/24 02:06:17;;;;;;;14.20;11.87;;;14.70;67.20;15.00;94420.00;;;;5050462;28;20189;-83
2022/04/24 02:08:43;;;;;;;11.77;10.37;;;14.70;67.20;15.10;94423.00;;;;5048284;28;20221;-83
2022/04/24 02:11:10;;;;;;;14.70;11.73;;;14.70;67.20;15.10;94413.00;;;;5045783;28;20246;-84
2022/04/24 02:13:39;;;;;;;15.20;12.03;;;14.70;67.20;15.10;94410.00;;;;5034989;28;20210;-83
2022/04/24 02:16:06;;;;;;;14.23;11.80;;;14.70;67.30;15.10;94414.00;;;;5044957;28;20646;-84
2022/04/24 02:18:34;;;;;;;13.43;11.37;;;14.70;67.20;15.10;94409.00;;;;5046871;28;20204;-84
2022/04/24 02:21:01;;;;;;;16.03;12.37;;;14.70;67.20;15.10;94412.00;;;;5041322;28;20213;-84
2022/04/24 02:23:28;;;;;;;15.37;11.87;;;14.70;67.20;15.10;94406.00;;;;5031045;28;20193;-84
2022/04/24 02:25:55;;;;;;;13.93;11.37;;;14.80;67.20;15.10;94394.00;;;;5025743;28;20202;-84
2022/04/24 02:28:22;;;;;;;12.50;11.17;;;14.70;67.20;15.10;94398.00;;;;5035986;28;20677;-84
2022/04/24 02:30:51;;;;;;;12.63;11.17;;;14.70;67.10;15.10;94391.00;;;;5043342;28;20201;-85
2022/04/24 02:33:18;;;;;;;12.73;11.13;;;14.70;67.10;15.10;94412.00;;;;5041226;28;20538;-84
2022/04/24 02:35:45;;;;;;;13.20;11.80;;;14.70;67.10;15.10;94390.00;;;;5043876;28;20200;-85
2022/04/24 02:38:13;;;;;;;13.07;11.53;;;14.70;67.10;15.10;94366.00;;;;5047250;28;20193;-84
2022/04/24 02:40:40;;;;;;;14.90;11.67;;;14.70;67.00;15.10;94383.00;;;;5043052;28;20196;-85
2022/04/24 02:43:07;;;;;;;14.93;11.50;;;14.80;67.00;15.10;94392.00;;;;5045178;28;20206;-84
2022/04/24 02:45:34;;;;;;;14.43;12.27;;;14.70;67.00;15.10;94409.00;;;;5047726;28;20313;-84
2022/04/24 02:48:04;;;;;;;14.90;11.90;;;14.70;67.20;15.10;94388.00;;;;5050179;28;20197;-85
2022/04/24 02:50:31;;;;;;;14.80;11.80;;;14.70;67.00;15.10;94412.00;;;;5050426;28;20252;-84
2022/04/24 02:52:58;;;;;;;15.23;12.00;;;14.70;67.10;15.00;94423.00;;;;5042912;28;20213;-85
2022/04/24 02:55:26;;;;;;;13.13;11.50;;;14.70;67.20;15.00;94414.00;;;;5035445;28;20194;-84
2022/04/24 02:57:55;;;;;;;13.70;11.03;;;14.60;67.30;15.00;94409.00;;;;5042397;28;20737;-85
2022/04/24 03:00:24;;;;;;;12.80;10.90;;;14.70;67.40;15.00;94421.00;;;;5052603;28;20219;-84
2022/04/24 03:02:53;;;;;;;13.87;11.60;;;14.60;68.00;15.00;94434.00;;;;5041454;28;20294;-84
2022/04/24 03:05:24;;;;;;;14.43;11.80;;;14.60;67.20;15.00;94423.00;;;;5035250;28;20546;-84
2022/04/24 03:07:52;;;;;;;13.80;11.37;;;14.60;67.40;15.00;94416.00;;;;5038794;28;20201;-84
2022/04/24 03:10:20;;;;;;;15.23;12.30;;;14.60;67.30;15.00;94418.00;;;;5043496;28;20212;-84
2022/04/24 03:12:47;;;;;;;12.83;10.67;;;14.60;67.40;15.00;94423.00;;;;5041746;28;20228;-84
2022/04/24 03:15:15;;;;;;;13.87;11.57;;;14.70;67.50;15.00;94436.00;;;;5052346;28;20193;-85
2022/04/24 03:17:43;;;;;;;13.53;12.03;;;14.60;67.50;15.00;94433.00;;;;5040360;28;20204;-84
2022/04/24 03:20:13;;;;;;;13.00;11.60;;;14.60;67.50;15.10;94426.00;;;;5046736;28;20200;-84
2022/04/24 03:22:41;;;;;;;12.87;11.13;;;14.70;67.60;15.10;94418.00;;;;5055040;28;20282;-84
2022/04/24 03:25:11;;;;;;;14.67;11.47;;;14.70;67.70;15.10;94419.00;;;;5061198;28;20201;-84
2022/04/24 03:27:38;;;;;;;12.70;10.63;;;14.70;67.70;15.10;94406.00;;;;5038212;28;20209;-84
2022/04/24 03:30:09;;;;;;;14.23;11.43;;;14.70;67.70;15.10;94410.00;;;;5033164;28;20569;-84
2022/04/24 03:32:37;;;;;;;12.97;11.20;;;14.70;67.70;15.10;94409.00;;;;5032722;28;20271;-83
2022/04/24 03:35:08;;;;;;;15.00;11.23;;;14.70;67.60;15.10;94418.00;;;;5032889;28;20267;-84
2022/04/24 03:37:35;;;;;;;13.00;10.60;;;14.70;67.70;15.10;94421.00;;;;5043399;28;20204;-84
2022/04/24 03:40:06;;;;;;;13.17;11.07;;;14.70;67.60;15.10;94420.00;;;;5035253;28;20201;-84
2022/04/24 03:42:35;;;;;;;15.90;11.63;;;14.70;67.60;15.10;94428.00;;;;5033549;28;20221;-84
2022/04/24 03:45:04;;;;;;;13.10;10.70;;;14.70;67.60;15.10;94429.00;;;;5035362;28;20643;-84
2022/04/24 03:47:31;;;;;;;14.03;11.33;;;14.70;67.60;15.10;94428.00;;;;5036587;28;20203;-84
2022/04/24 03:49:58;;;;;;;12.43;11.10;;;14.70;67.60;15.10;94428.00;;;;5036386;28;20221;-84
2022/04/24 03:52:25;;;;;;;13.63;11.47;;;14.70;67.50;15.10;94456.00;;;;5052876;28;20227;-83
2022/04/24 03:54:52;;;;;;;12.13;10.50;;;14.70;68.30;15.10;94485.00;;;;5019835;28;20649;-84
2022/04/24 03:57:21;;;;;;;14.37;11.47;;;14.70;67.60;15.10;94461.00;;;;5044066;28;20284;-84
2022/04/24 03:59:48;;;;;;;14.00;10.73;;;14.70;67.60;15.10;94490.00;;;;5052335;28;20201;-83
2022/04/24 04:02:15;;;;;;;12.47;10.50;;;14.70;67.60;15.10;94502.00;;;;5039689;28;20213;-84
2022/04/24 04:04:43;;;;;;;13.87;11.50;;;14.70;67.70;15.10;94502.00;;;;5043910;28;20334;-84
2022/04/24 04:07:10;;;;;;;13.07;11.40;;;14.70;67.70;15.10;94511.00;;;;5036628;28;20203;-84
2022/04/24 04:09:38;;;;;;;13.73;11.33;;;14.80;67.80;15.20;94503.00;;;;5021649;28;20272;-84
2022/04/24 04:12:07;;;;;;;13.53;11.50;;;14.70;67.70;15.10;94506.00;;;;5016286;28;20253;-83
2022/04/24 04:14:35;;;;;;;13.70;11.10;;;14.70;67.80;15.20;94506.00;;;;5036147;28;20201;-84
2022/04/24 04:17:02;;;;;;;13.83;11.40;;;14.80;67.90;15.20;94506.00;;;;5043034;28;20195;-84
2022/04/24 04:19:32;;;;;;;12.67;10.77;;;14.70;68.60;15.20;94503.00;;;;5048682;28;20201;-84
2022/04/24 04:21:59;;;;;;;13.00;11.10;;;14.70;67.90;15.20;94506.00;;;;5056107;28;20212;-83
2022/04/24 04:24:26;;;;;;;14.07;11.73;;;14.70;67.90;15.20;94502.00;;;;5033102;28;20281;-84
2022/04/24 04:26:53;;;;;;;14.70;11.97;;;14.70;68.10;15.20;94504.00;;;;5016349;28;20202;-84
2022/04/24 04:29:20;;;;;;;13.30;11.90;;;14.70;68.10;15.20;94510.00;;;;5027439;28;20221;-84
2022/04/24 04:31:48;;;;;;;13.27;11.13;;;14.80;68.20;15.20;94521.00;;;;5035431;28;20225;-84
2022/04/24 04:34:15;;;;;;;14.37;11.40;;;14.80;68.30;15.20;94527.00;;;;5034399;28;20194;-84
2022/04/24 04:36:42;;;;;;;14.20;11.50;;;14.80;68.30;15.20;94530.00;;;;5035461;28;20197;-84
2022/04/24 04:39:09;;;;;;;12.90;10.83;;;14.80;68.20;15.20;94535.00;;;;5036167;28;20202;-83
2022/04/24 04:41:36;;;;;;;12.07;10.73;;;14.80;68.20;15.20;94532.00;;;;5050870;28;20685;-83
2022/04/24 04:44:04;;;;;;;12.63;10.90;;;14.80;68.30;15.20;94543.00;;;;5035619;28;20198;-84
2022/04/24 04:46:31;;;;;;;14.20;11.80;;;14.80;68.30;15.20;94543.00;;;;5036209;28;20231;-83
2022/04/24 04:48:59;;;;;;;13.87;11.70;;;14.80;68.30;15.20;94544.00;;;;5034793;28;20676;-83
2022/04/24 04:51:26;;;;;;;13.63;10.97;;;14.80;68.40;15.20;94563.00;;;;5034878;28;20240;-84
2022/04/24 04:53:55;;;;;;;12.83;11.30;;;14.80;68.30;15.20;94567.00;;;;5033679;28;20193;-84
2022/04/24 04:56:23;;;;;;;14.17;11.17;;;14.80;68.30;15.20;94574.00;;;;5037598;28;20194;-84
2022/04/24 04:58:50;;;;;;;13.37;11.43;;;14.80;68.40;15.30;94576.00;;;;5044905;28;20196;-83
2022/04/24 05:01:17;;;;;;;14.20;11.90;;;14.80;68.40;15.30;94588.00;;;;5035209;28;20225;-84
2022/04/24 05:03:44;;;;;;;13.70;11.40;;;14.80;68.50;15.30;94597.00;;;;5035183;28;20189;-84
2022/04/24 05:06:12;;;;;;;14.97;11.53;;;14.90;68.60;15.30;94584.00;;;;5033442;28;20197;-84
2022/04/24 05:08:39;;;;;;;12.93;11.57;;;14.80;68.70;15.40;94596.00;;;;5034671;28;20193;-84
2022/04/24 05:11:06;;;;;;;12.60;11.30;;;14.90;68.80;15.40;94590.00;;;;5047477;28;20235;-84
2022/04/24 05:13:33;;;;;;;13.27;11.23;;;14.90;68.80;15.40;94598.00;;;;5054301;28;20187;-84
2022/04/24 05:16:01;;;;;;;15.00;12.13;;;14.90;68.80;15.40;94613.00;;;;5034648;28;20243;-84
2022/04/24 05:18:28;;;;;;;12.87;10.77;;;14.90;68.70;15.50;94619.00;;;;5018006;28;20683;-84
2022/04/24 05:20:56;;;;;;;13.13;11.63;;;15.00;68.70;15.50;94606.00;;;;5031339;28;20617;-84
2022/04/24 05:23:24;;;;;;;14.07;11.30;;;15.00;68.60;15.50;94610.00;;;;5034975;28;20197;-84
2022/04/24 05:25:51;;;;;;;16.07;12.40;;;15.00;68.60;15.50;94607.00;;;;5033837;28;20201;-84
2022/04/24 05:28:18;;;;;;;15.07;12.13;;;15.10;68.70;15.60;94602.00;;;;5018718;28;20198;-84
2022/04/24 05:30:45;;;;;;;13.40;11.63;;;15.10;68.70;15.60;94607.00;;;;5025682;28;20226;-84
2022/04/24 05:33:17;;;;;;;15.47;13.20;;;15.10;68.60;15.70;94604.00;;;;5016222;28;20224;-84
2022/04/24 05:35:45;;;;;;;17.07;12.57;;;15.20;68.70;15.70;94617.00;;;;5033926;28;20182;-84
2022/04/24 05:38:12;;;;;;;14.53;12.07;;;15.30;68.60;15.80;94627.00;;;;5033804;28;20202;-84
2022/04/24 05:40:40;;;;;;;13.87;12.33;;;15.20;68.30;15.70;94640.00;;;;5033824;28;20219;-83
2022/04/24 05:43:07;;;;;;;14.33;11.87;;;15.30;68.40;15.80;94660.00;;;;5034216;28;20194;-83
2022/04/24 05:45:35;;;;;;;12.50;10.77;;;15.30;68.30;15.80;94671.00;;;;5019243;28;20198;-81
2022/04/24 05:48:02;;;;;;;15.77;12.33;;;15.30;68.20;15.80;94657.00;;;;5035508;28;20357;-82
2022/04/24 05:50:29;;;;;;;14.47;11.83;;;15.30;68.10;15.80;94656.00;;;;5035564;28;20213;-81
2022/04/24 05:52:57;;;;;;;14.87;12.87;;;15.30;68.10;15.80;94651.00;;;;5035499;28;20225;-80
2022/04/24 05:55:25;;;;;;;16.40;12.53;;;15.30;68.20;15.90;94654.00;;;;5034823;28;20205;-81
2022/04/24 05:57:54;;;;;;;15.83;13.13;;;15.30;68.20;15.90;94653.00;;;;5036173;28;20205;-83
2022/04/24 06:00:22;;;;;;;14.43;12.07;;;15.40;68.90;16.00;94655.00;;;;5048254;28;20206;-81
2022/04/24 06:02:49;;;;;;;14.03;11.40;;;15.40;68.20;16.00;94649.00;;;;5034576;28;20220;-81
2022/04/24 06:05:16;;;;;;;14.67;12.53;;;15.40;68.20;16.00;94645.00;;;;5034252;28;20200;-83
2022/04/24 06:07:43;;;;;;;15.17;12.27;;;15.40;68.30;16.00;94652.00;;;;5014732;28;20194;-81
2022/04/24 06:10:13;;;;;;;14.23;12.20;;;15.50;68.30;16.00;94652.00;;;;5039667;28;20716;-82
2022/04/24 06:12:48;;;;;;;13.47;11.87;;;15.50;68.30;16.10;94653.00;;;;5068077;22;20220;-84
2022/04/24 06:15:21;;;;;;;12.83;11.40;;;15.50;68.50;16.00;94653.00;;;;5047094;28;22074;-85
2022/04/24 06:17:51;;;;;;;14.03;12.27;;;15.50;68.30;16.00;94660.00;;;;5045048;28;20205;-85
2022/04/24 06:20:26;;;;;;;13.97;11.47;;;15.50;68.30;16.10;94663.00;;;;5032420;28;20221;-84
2022/04/24 06:22:55;;;;;;;13.03;11.63;;;15.50;68.40;16.10;94678.00;;;;5032961;28;20264;-84
2022/04/24 06:25:24;;;;;;;14.37;12.07;;;15.50;68.10;16.10;94680.00;;;;5032416;28;20229;-84
2022/04/24 06:27:53;;;;;;;14.67;12.17;;;15.50;68.10;16.10;94682.00;;;;5032711;28;20243;-84
2022/04/24 06:30:29;;;;;;;14.53;12.57;;;15.60;68.00;16.00;94677.00;;;;5039011;28;20216;-86
2022/04/24 06:32:57;;;;;;;14.27;11.43;;;15.50;68.10;16.00;94685.00;;;;5038564;28;20232;-86
2022/04/24 06:35:25;;;;;;;13.03;11.43;;;15.50;68.10;16.00;94675.00;;;;5046091;28;20254;-85
2022/04/24 06:37:55;;;;;;;15.50;12.53;;;15.50;69.00;16.00;94678.00;;;;5033298;28;20635;-84
2022/04/24 06:40:25;;;;;;;15.37;12.40;;;15.50;68.40;16.10;94675.00;;;;5032612;28;20205;-85
2022/04/24 06:42:56;;;;;;;13.50;11.87;;;15.60;68.50;16.10;94676.00;;;;5044267;28;20231;-85
2022/04/24 06:45:27;;;;;;;15.40;12.93;;;15.50;68.60;16.10;94672.00;;;;5052185;28;20387;-85
2022/04/24 06:48:00;;;;;;;14.90;11.57;;;15.60;68.80;16.10;94682.00;;;;5039682;28;20208;-84
2022/04/24 06:50:34;;;;;;;16.67;12.47;;;15.60;68.90;16.10;94685.00;;;;5052532;28;20209;-84
2022/04/24 06:53:04;;;;;;;13.87;12.00;;;15.60;68.70;16.10;94690.00;;;;5031979;28;20571;-84
2022/04/24 06:55:34;;;;;;;13.60;11.17;;;15.60;68.50;16.10;94695.00;;;;5033904;28;20287;-84
2022/04/24 06:58:02;;;;;;;12.97;11.33;;;15.60;68.50;16.20;94689.00;;;;5034240;28;20247;-84
2022/04/24 07:00:36;;;;;;;13.47;11.40;;;15.60;68.60;16.20;94688.00;;;;5033549;28;20208;-83
2022/04/24 07:03:14;;;;;;;13.90;10.93;;;15.70;68.60;16.20;94683.00;;;;5034000;28;20661;-86
2022/04/24 07:05:42;;;;;;;13.43;10.90;;;15.70;68.50;16.20;94691.00;;;;5031945;28;20304;-86
2022/04/24 07:08:11;;;;;;;12.83;10.97;;;15.70;68.30;16.20;94696.00;;;;5034615;28;20201;-85
2022/04/24 07:10:38;;;;;;;15.30;11.67;;;15.80;68.30;16.30;94694.00;;;;5031901;28;20225;-86
2022/04/24 07:13:07;;;;;;;14.50;12.30;;;15.80;68.40;16.30;94709.00;;;;5031925;28;20620;-87
2022/04/24 07:15:38;;;;;;;13.67;11.37;;;15.80;68.40;16.40;94716.00;;;;5049738;28;20296;-87
2022/04/24 07:18:07;;;;;;;12.63;10.93;;;15.90;68.50;16.50;94712.00;;;;5042411;28;20189;-87
2022/04/24 07:20:35;;;;;;;12.93;10.47;;;16.00;68.60;16.70;94724.00;;;;5033545;28;20209;-86
2022/04/24 07:23:05;;;;;;;13.43;11.50;;;16.00;68.70;16.90;94718.00;;;;5038284;28;20804;-87
2022/04/24 07:25:40;;;;;;;12.43;10.47;;;16.20;68.90;17.10;94723.00;;;;5032148;28;20668;-86
2022/04/24 07:28:08;;;;;;;13.03;10.63;;;16.30;68.90;17.30;94709.00;;;;5031489;28;20197;-86
2022/04/24 07:30:37;;;;;;;11.40;10.20;;;16.50;69.20;17.60;94723.00;;;;5028517;28;20221;-86
2022/04/24 07:33:05;;;;;;;10.43;9.27;;;16.70;69.10;17.80;94727.00;;;;5015230;28;20228;-86
2022/04/24 07:35:38;;;;;;;10.60;9.10;;;16.80;68.60;18.10;94727.00;;;;5040870;28;20217;-87
2022/04/24 07:38:05;;;;;;;10.50;9.40;;;17.00;68.20;18.40;94732.00;;;;5031384;28;20193;-85
2022/04/24 07:40:36;;;;;;;8.77;7.87;;;17.30;68.10;18.70;94735.00;;;;5028424;28;20287;-86
2022/04/24 07:43:08;;;;;;;10.17;8.90;;;17.50;68.00;19.10;94738.00;;;;5031398;28;20212;-87
2022/04/24 07:45:39;;;;;;;8.40;7.07;;;17.80;67.00;19.40;94741.00;;;;5032353;28;20300;-86
2022/04/24 07:48:12;;;;;;;8.63;7.67;;;18.10;66.50;19.60;94745.00;;;;5033487;28;20182;-87
2022/04/24 07:50:44;;;;;;;7.93;7.13;;;18.30;65.20;19.80;94738.00;;;;5031795;28;20304;-88
2022/04/24 07:53:18;;;;;;;7.87;7.10;;;18.60;64.70;20.10;94740.00;;;;5031756;28;20280;-85
2022/04/24 07:55:49;;;;;;;7.23;6.50;;;18.80;63.60;20.20;94744.00;;;;5031244;28;20690;-85
2022/04/24 07:58:17;;;;;;;6.33;5.77;;;19.00;63.40;20.40;94754.00;;;;5030397;28;20211;-85
2022/04/24 08:00:50;;;;;;;6.00;5.50;;;19.30;62.90;20.60;94769.00;;;;5030057;28;20854;-85
2022/04/24 08:03:20;;;;;;;5.70;5.20;;;19.50;61.70;20.80;94774.00;;;;5030734;28;20229;-85
2022/04/24 08:05:50;;;;;;;5.77;5.27;;;19.60;60.50;20.90;94783.00;;;;5031342;28;20229;-85
2022/04/24 08:08:19;;;;;;;5.37;4.87;;;19.80;60.10;21.00;94782.00;;;;5031875;28;20677;-84
2022/04/24 08:10:56;;;;;;;5.73;5.23;;;19.90;59.80;21.10;94790.00;;;;5031246;28;20656;-85
2022/04/24 08:13:35;;;;;;;5.53;5.03;;;20.00;58.30;21.20;94787.00;;;;5031073;28;20213;-85
2022/04/24 08:16:04;;;;;;;5.60;5.10;;;20.20;58.70;21.30;94790.00;;;;5025824;23;20229;-85
2022/04/24 08:18:31;;;;;;;5.40;4.90;;;20.20;58.20;21.40;94794.00;;;;5025141;28;20281;-86
2022/04/24 08:20:58;;;;;;;6.13;5.63;;;20.30;57.80;21.50;94800.00;;;;5032889;28;20287;-85
2022/04/24 08:23:26;;;;;;;6.50;5.90;;;20.40;57.90;21.70;94802.00;;;;5017281;28;20202;-86
2022/04/24 08:25:53;;;;;;;5.70;5.13;;;20.50;57.60;21.80;94810.00;;;;5016473;28;20210;-85
2022/04/24 08:28:21;;;;;;;5.47;4.97;;;20.60;57.30;21.90;94823.00;;;;5026775;28;20196;-86
2022/04/24 08:30:49;;;;;;;5.97;5.37;;;20.70;56.90;22.00;94821.00;;;;5034223;28;20260;-86
2022/04/24 08:33:18;;;;;;;5.20;4.80;;;20.80;56.80;22.20;94830.00;;;;5035309;28;20666;-86
2022/04/24 08:35:47;;;;;;;5.00;4.60;;;20.90;56.70;22.20;94832.00;;;;5035445;28;20259;-86
2022/04/24 08:38:14;;;;;;;4.83;4.43;;;21.00;56.40;22.20;94838.00;;;;5025689;28;20209;-87
2022/04/24 08:40:41;;;;;;;5.40;4.97;;;21.10;56.00;22.30;94845.00;;;;5034820;28;20219;-86
2022/04/24 08:43:09;;;;;;;4.73;4.33;;;21.10;55.50;22.30;94842.00;;;;5030124;28;20284;-87
2022/04/24 08:45:41;;;;;;;5.73;5.23;;;21.20;55.60;22.30;94851.00;;;;5035461;28;20213;-86
2022/04/24 08:48:09;;;;;;;4.80;4.40;;;21.30;55.10;22.20;94866.00;;;;5026102;28;20237;-86
2022/04/24 08:50:40;;;;;;;5.10;4.70;;;21.30;54.90;22.20;94859.00;;;;5032017;28;20624;-85
2022/04/24 08:53:09;;;;;;;4.50;4.10;;;21.30;54.20;22.20;94861.00;;;;5036362;28;20576;-86
2022/04/24 08:55:37;;;;;;;4.63;4.30;;;21.30;54.50;22.20;94855.00;;;;5036494;28;20219;-85
2022/04/24 08:58:04;;;;;;;4.70;4.30;;;21.30;54.40;22.20;94855.00;;;;5035925;28;20200;-86
2022/04/24 09:00:33;;;;;;;4.70;4.30;;;21.40;54.60;22.30;94867.00;;;;5036120;28;20614;-86
2022/04/24 09:03:01;;;;;;;5.33;4.93;;;21.40;54.20;22.20;94865.00;;;;5035964;28;20197;-86
2022/04/24 09:05:30;;;;;;;4.57;4.17;;;21.50;54.10;22.30;94866.00;;;;5030578;28;20220;-85
2022/04/24 09:08:08;;;;;;;4.57;4.20;;;21.50;53.80;22.30;94862.00;;;;5038530;28;20193;-85
2022/04/24 09:10:50;;;;;;;4.07;3.77;;;21.50;53.10;22.20;94867.00;;;;5038422;28;20217;-86
2022/04/24 09:13:31;;;;;;;4.57;4.27;;;21.50;53.20;22.20;94867.00;;;;5034325;28;20192;-85
2022/04/24 09:15:59;;;;;;;4.47;4.07;;;21.50;53.10;22.30;94881.00;;;;5040320;28;20224;-86
2022/04/24 09:18:39;;;;;;;4.37;4.03;;;21.60;53.40;22.30;94879.00;;;;5038658;28;20217;-86
2022/04/24 09:21:06;;;;;;;4.57;4.20;;;21.60;53.00;22.40;94880.00;;;;5032857;28;20189;-87
2022/04/24 09:23:38;;;;;;;4.00;3.70;;;21.70;53.30;22.50;94877.00;;;;5039463;28;20186;-86
2022/04/24 09:26:06;;;;;;;6.57;4.13;;;21.80;52.70;22.60;94886.00;;;;5040721;28;20293;-86
2022/04/24 09:28:38;;;;;;;4.00;3.70;;;21.90;53.00;22.80;94876.00;;;;5035517;28;20197;-85
2022/04/24 09:31:06;;;;;;;3.90;3.60;;;22.10;53.30;23.00;94874.00;;;;5041221;28;20217;-85
2022/04/24 09:33:38;;;;;;;3.90;3.60;;;22.30;53.40;23.10;94882.00;;;;5040516;28;20187;-86
2022/04/24 09:36:06;;;;;;;3.63;3.33;;;22.40;52.70;23.10;94887.00;;;;5030106;28;20210;-86
2022/04/24 09:38:42;;;;;;;3.47;3.17;;;22.50;52.20;23.10;94886.00;;;;5031173;28;20225;-85
2022/04/24 09:41:17;;;;;;;3.40;3.20;;;22.60;51.10;23.00;94899.00;;;;5038953;28;20243;-85
2022/04/24 09:43:45;;;;;;;3.10;2.80;;;22.60;51.10;22.80;94902.00;;;;5033464;28;20189;-87
2022/04/24 09:46:13;;;;;;;3.30;3.03;;;22.60;50.70;22.70;94893.00;;;;5038552;28;20220;-87
2022/04/24 09:48:40;;;;;;;2.87;2.67;;;22.50;50.50;22.60;94895.00;;;;5043901;28;20231;-86
2022/04/24 09:51:11;;;;;;;2.70;2.50;;;22.40;50.10;22.50;94900.00;;;;5039339;28;20221;-86
2022/04/24 09:53:43;;;;;;;2.77;2.57;;;22.30;49.80;22.30;94899.00;;;;5042510;28;20182;-86
2022/04/24 09:56:12;;;;;;;3.17;2.97;;;22.20;50.10;22.30;94909.00;;;;5030563;28;20213;-86
2022/04/24 09:58:39;;;;;;;2.80;2.60;;;22.00;50.10;22.20;94906.00;;;;5040366;28;20207;-84
2022/04/24 10:01:08;;;;;;;3.40;3.20;;;21.90;50.40;22.10;94908.00;;;;5040694;28;20201;-85
2022/04/24 10:03:38;;;;;;;3.23;2.93;;;21.80;50.60;22.10;94904.00;;;;5039256;28;20186;-85
2022/04/24 10:06:06;;;;;;;3.17;2.97;;;21.70;50.50;22.10;94907.00;;;;5038670;28;20221;-85
2022/04/24 10:08:34;;;;;;;2.73;2.53;;;21.60;50.60;22.10;94905.00;;;;5038503;28;20296;-85
2022/04/24 10:11:06;;;;;;;3.23;3.03;;;21.50;50.80;22.00;94908.00;;;;5038346;28;20575;-84
2022/04/24 10:13:42;;;;;;;3.07;2.77;;;21.40;50.80;22.00;94909.00;;;;5038618;28;20220;-86
2022/04/24 10:16:42;;;;;;;3.20;3.00;;;21.30;50.80;21.90;94915.00;;;;5038909;28;20236;-85
2022/04/24 10:19:24;;;;;;;3.43;3.13;;;21.30;50.90;21.80;94922.00;;;;5039160;28;20267;-87
2022/04/24 10:22:07;;;;;;;3.40;3.17;;;21.20;51.20;21.70;94915.00;;;;5040208;28;20203;-85
2022/04/24 10:24:43;;;;;;;3.37;3.07;;;21.10;51.00;21.60;94910.00;;;;5039891;28;20216;-84
2022/04/24 10:27:12;;;;;;;2.90;2.53;;;21.00;51.30;21.50;94912.00;;;;5038882;28;20196;-84
2022/04/24 10:29:53;;;;;;;2.83;2.63;;;20.90;51.60;21.50;94905.00;;;;5040028;28;20198;-85
2022/04/24 10:32:30;;;;;;;2.10;2.00;;;20.80;51.30;21.40;94906.00;;;;5039258;28;20228;-85
2022/04/24 10:34:58;;;;;;;2.70;2.50;;;20.70;51.50;21.40;94915.00;;;;5039224;28;20604;-86
2022/04/24 10:37:33;;;;;;;2.27;2.17;;;20.70;51.40;21.30;94911.00;;;;5040187;28;20185;-85
2022/04/24 10:40:03;;;;;;;2.30;2.10;;;20.60;51.40;21.30;94905.00;;;;5032304;28;20238;-85
2022/04/24 10:42:34;;;;;;;2.63;2.43;;;20.60;51.70;21.30;94917.00;;;;5038655;28;20566;-86
2022/04/24 10:45:12;;;;;;;2.80;2.60;;;20.50;51.80;21.20;94912.00;;;;5038337;28;20220;-85
2022/04/24 10:47:55;;;;;;;2.50;2.30;;;20.50;51.90;21.20;94911.00;;;;5034559;28;20182;-85
2022/04/24 10:50:23;;;;;;;2.20;2.10;;;20.50;51.90;21.20;94908.00;;;;5038196;28;20287;-85
2022/04/24 10:52:53;;;;;;;2.37;2.20;;;20.40;52.00;21.20;94897.00;;;;5038526;28;20247;-85
2022/04/24 10:55:27;;;;;;;1.80;1.70;;;20.40;52.10;21.20;94907.00;;;;5039048;28;20706;-86